createdAt,value
2017-09-08T00:01:47.552Z,100268.30
2017-09-08T00:04:14.942Z,100261.17
2017-09-08T00:09:32.978Z,100249.41
2017-09-08T00:12:00.382Z,100252.98
2017-09-08T00:14:27.772Z,100251.14
2017-09-08T00:16:55.178Z,100244.97
2017-09-08T00:19:22.574Z,100250.05
2017-09-08T00:21:49.982Z,100254.50
2017-09-08T00:24:17.382Z,100248.59
2017-09-08T00:26:44.803Z,100249.75
2017-09-08T00:29:12.195Z,100245.42
2017-09-08T00:31:39.606Z,100244.53
2017-09-08T00:34:07.006Z,100238.23
2017-09-08T00:36:34.414Z,100236.52
2017-09-08T00:39:01.862Z,100231.03
2017-09-08T00:41:29.250Z,100221.38
2017-09-08T00:43:56.649Z,100223.31
2017-09-08T00:46:24.117Z,100219.30
2017-09-08T00:48:51.522Z,100217.47
2017-09-08T00:51:18.913Z,100212.25
2017-09-08T00:53:46.315Z,100214.94
2017-09-08T00:56:13.715Z,100208.03
2017-09-08T00:58:41.115Z,100202.23
2017-09-08T01:01:08.506Z,100204.33
2017-09-08T01:03:35.915Z,100210.34
2017-09-08T01:06:03.343Z,100206.43
2017-09-08T01:08:30.742Z,100204.11
2017-09-08T01:10:58.147Z,100192.56
2017-09-08T01:13:25.539Z,100185.71
2017-09-08T01:15:52.937Z,100183.37
2017-09-08T01:18:20.330Z,100191.50
2017-09-08T01:20:47.735Z,100178.97
2017-09-08T01:23:15.127Z,100172.23
2017-09-08T01:25:42.637Z,100173.60
2017-09-08T01:28:10.043Z,100176.77
2017-09-08T01:30:37.433Z,100176.42
2017-09-08T01:33:04.935Z,100165.56
2017-09-08T01:35:32.354Z,100166.06
2017-09-08T01:37:59.746Z,100155.28
2017-09-08T01:40:27.154Z,100154.63
2017-09-08T01:42:54.546Z,100143.71
2017-09-08T01:45:21.949Z,100146.38
2017-09-08T01:47:49.335Z,100141.59
2017-09-08T01:50:16.742Z,100135.84
2017-09-08T01:52:44.137Z,100126.20
2017-09-08T01:55:11.535Z,100128.72
2017-09-08T01:57:39.766Z,100128.44
2017-09-08T02:00:07.191Z,100121.42
2017-09-08T02:02:34.578Z,100121.11
2017-09-08T02:05:01.977Z,100114.13
2017-09-08T02:07:29.390Z,100117.38
2017-09-08T02:09:56.790Z,100118.89
2017-09-08T02:12:24.187Z,100109.23
2017-09-08T02:14:51.579Z,100102.42
2017-09-08T02:17:18.986Z,100100.40
2017-09-08T02:19:46.466Z,100104.24
2017-09-08T02:22:13.867Z,100102.73
2017-09-08T02:24:41.256Z,100099.98
2017-09-08T02:27:08.655Z,100101.45
2017-09-08T02:29:36.051Z,100099.49
2017-09-08T02:32:03.435Z,100095.42
2017-09-08T02:34:30.830Z,100086.22
2017-09-08T02:36:58.232Z,100090.59
2017-09-08T02:39:25.622Z,100090.80
2017-09-08T02:41:53.022Z,100083.89
2017-09-08T02:44:20.438Z,100081.14
2017-09-08T02:46:47.836Z,100073.70
2017-09-08T02:49:15.238Z,100074.41
2017-09-08T02:51:42.618Z,100069.08
2017-09-08T02:54:10.015Z,100063.63
2017-09-08T02:56:37.435Z,100058.02
2017-09-08T02:59:04.850Z,100056.48
2017-09-08T03:01:32.243Z,100053.11
2017-09-08T03:03:59.650Z,100048.23
2017-09-08T03:06:27.034Z,100040.80
2017-09-08T03:08:54.432Z,100032.40
2017-09-08T03:11:21.838Z,100030.56
2017-09-08T03:13:49.247Z,100029.95
2017-09-08T03:16:16.629Z,100026.78
2017-09-08T03:18:44.031Z,100022.20
2017-09-08T03:21:11.419Z,100021.75
2017-09-08T03:23:38.829Z,100016.51
2017-09-08T03:26:06.250Z,100010.31
2017-09-08T03:28:33.651Z,100007.45
2017-09-08T03:31:01.041Z,99995.27
2017-09-08T03:33:28.436Z,99992.35
2017-09-08T03:35:55.869Z,99991.14
2017-09-08T03:41:01.424Z,99987.45
2017-09-08T03:43:28.825Z,99980.30
2017-09-08T03:45:56.210Z,99972.81
2017-09-08T03:48:23.624Z,99975.05
2017-09-08T03:50:51.014Z,99967.48
2017-09-08T03:53:18.403Z,99960.09
2017-09-08T03:55:45.806Z,99955.19
2017-09-08T03:58:13.202Z,99953.55
2017-09-08T04:00:40.710Z,99941.09
2017-09-08T04:03:08.178Z,99940.97
2017-09-08T04:05:35.614Z,99934.92
2017-09-08T04:08:03.002Z,99934.15
2017-09-08T04:10:30.391Z,99934.73
2017-09-08T04:12:57.778Z,99924.42
2017-09-08T04:15:25.175Z,99922.98
2017-09-08T04:17:52.558Z,99919.38
2017-09-08T04:20:20.047Z,99911.83
2017-09-08T04:22:47.438Z,99915.08
2017-09-08T04:25:14.827Z,99914.25
2017-09-08T04:27:42.216Z,99913.67
2017-09-08T04:30:09.623Z,99910.17
2017-09-08T04:32:37.050Z,99909.63
2017-09-08T04:35:04.449Z,99899.88
2017-09-08T04:37:31.953Z,99905.19
2017-09-08T04:39:59.362Z,99902.74
2017-09-08T04:42:26.751Z,99898.60
2017-09-08T04:44:54.147Z,99892.40
2017-09-08T04:47:21.575Z,99893.72
2017-09-08T04:49:48.967Z,99882.67
2017-09-08T04:52:16.368Z,99884.59
2017-09-08T04:54:43.762Z,99880.08
2017-09-08T04:57:11.163Z,99872.34
2017-09-08T04:59:38.550Z,99874.98
2017-09-08T05:02:05.956Z,99861.48
2017-09-08T05:04:33.339Z,99855.34
2017-09-08T05:07:00.736Z,99866.66
2017-09-08T05:09:28.154Z,99863.22
2017-09-08T05:11:55.610Z,99860.56
2017-09-08T05:14:23.002Z,99856.78
2017-09-08T05:16:50.390Z,99855.52
2017-09-08T05:19:17.782Z,99859.63
2017-09-08T05:21:45.183Z,99850.81
2017-09-08T05:24:12.595Z,99853.55
2017-09-08T05:26:39.992Z,99845.85
2017-09-08T05:29:07.387Z,99840.20
2017-09-08T05:31:35.079Z,99835.36
2017-09-08T05:34:02.539Z,99835.72
2017-09-08T05:36:29.926Z,99833.27
2017-09-08T05:38:57.322Z,99823.00
2017-09-08T05:41:24.715Z,99826.09
2017-09-08T05:43:52.142Z,99817.25
2017-09-08T05:46:19.539Z,99817.89
2017-09-08T05:48:46.930Z,99810.95
2017-09-08T05:51:14.323Z,99806.04
2017-09-08T05:53:41.724Z,99808.11
2017-09-08T05:56:09.752Z,99794.80
2017-09-08T05:58:37.130Z,99794.58
2017-09-08T06:01:04.523Z,99788.95
2017-09-08T06:03:32.003Z,99782.09
2017-09-08T06:05:59.399Z,99776.02
2017-09-08T06:08:26.810Z,99774.17
2017-09-08T06:10:54.270Z,99767.64
2017-09-08T06:13:21.668Z,99760.73
2017-09-08T06:15:49.051Z,99761.39
2017-09-08T06:18:16.451Z,99763.81
2017-09-08T06:20:43.855Z,99768.39
2017-09-08T06:23:11.395Z,99767.58
2017-09-08T06:25:38.833Z,99761.98
2017-09-08T06:28:06.207Z,99767.05
2017-09-08T06:30:33.718Z,99752.78
2017-09-08T06:33:01.111Z,99749.43
2017-09-08T06:35:28.510Z,99752.49
2017-09-08T06:37:55.908Z,99749.37
2017-09-08T06:40:23.318Z,99743.34
2017-09-08T06:42:50.714Z,99738.22
2017-09-08T06:45:18.111Z,99738.80
2017-09-08T06:47:45.510Z,99732.81
2017-09-08T06:50:12.913Z,99731.66
2017-09-08T06:52:40.299Z,99729.61
2017-09-08T06:55:07.791Z,99719.58
2017-09-08T06:57:35.174Z,99723.29
2017-09-08T07:00:02.583Z,99722.95
2017-09-08T07:02:29.974Z,99723.26
2017-09-08T07:04:57.370Z,99727.28
2017-09-08T07:07:24.764Z,99716.89
2017-09-08T07:09:52.159Z,99716.73
2017-09-08T07:12:19.564Z,99711.62
2017-09-08T07:14:46.967Z,99718.69
2017-09-08T07:17:14.354Z,99710.79
2017-09-08T07:19:41.755Z,99719.02
2017-09-08T07:22:09.147Z,99713.72
2017-09-08T07:24:36.536Z,99715.70
2017-09-08T07:27:03.994Z,99707.06
2017-09-08T07:29:31.385Z,99708.56
2017-09-08T07:31:58.786Z,99702.05
2017-09-08T07:34:26.163Z,99697.12
2017-09-08T07:36:53.550Z,99702.85
2017-09-08T07:39:20.940Z,99696.13
2017-09-08T07:41:48.425Z,99703.58
2017-09-08T07:44:15.807Z,99700.50
2017-09-08T07:46:43.218Z,99700.14
2017-09-08T07:49:10.609Z,99703.85
2017-09-08T07:51:38.003Z,99697.56
2017-09-08T07:54:05.400Z,99693.88
2017-09-08T07:56:32.783Z,99695.66
2017-09-08T07:59:00.184Z,99692.27
2017-09-08T08:01:27.576Z,99692.49
2017-09-08T08:03:54.968Z,99686.31
2017-09-08T08:06:22.362Z,99687.89
2017-09-08T08:08:49.751Z,99686.50
2017-09-08T08:11:17.134Z,99684.81
2017-09-08T08:13:44.518Z,99677.93
2017-09-08T08:16:11.919Z,99673.05
2017-09-08T08:18:39.302Z,99669.56
2017-09-08T08:21:06.699Z,99667.04
2017-09-08T08:23:34.082Z,99663.89
2017-09-08T08:26:01.482Z,99654.16
2017-09-08T08:28:28.879Z,99662.38
2017-09-08T08:30:56.283Z,99657.53
2017-09-08T08:33:23.670Z,99651.16
2017-09-08T08:35:51.058Z,99650.70
2017-09-08T08:38:18.454Z,99654.78
2017-09-08T08:40:45.834Z,99644.59
2017-09-08T08:43:13.226Z,99647.22
2017-09-08T08:45:40.670Z,99642.13
2017-09-08T08:48:08.069Z,99643.27
2017-09-08T08:50:35.458Z,99641.77
2017-09-08T08:53:02.858Z,99641.31
2017-09-08T08:55:30.255Z,99633.27
2017-09-08T08:57:57.650Z,99632.34
2017-09-08T09:00:25.036Z,99626.52
2017-09-08T09:02:52.437Z,99629.95
2017-09-08T09:05:19.826Z,99628.44
2017-09-08T09:07:47.214Z,99622.98
2017-09-08T09:10:14.611Z,99617.56
2017-09-08T09:12:41.991Z,99608.95
2017-09-08T09:15:09.398Z,99610.11
2017-09-08T09:17:36.773Z,99609.52
2017-09-08T09:20:04.234Z,99608.68
2017-09-08T09:22:31.618Z,99617.14
2017-09-08T09:24:59.016Z,99606.45
2017-09-08T09:27:26.506Z,99603.83
2017-09-08T09:29:53.962Z,99599.41
2017-09-08T09:32:21.355Z,99597.02
2017-09-08T09:34:48.747Z,99591.98
2017-09-08T09:37:16.138Z,99590.50
2017-09-08T09:39:43.523Z,99589.31
2017-09-08T09:42:10.915Z,99581.97
2017-09-08T09:44:38.319Z,99572.88
2017-09-08T09:47:05.703Z,99570.35
2017-09-08T09:49:33.093Z,99562.48
2017-09-08T09:52:00.479Z,99565.50
2017-09-08T09:54:27.870Z,99558.95
2017-09-08T09:56:55.370Z,99555.77
2017-09-08T09:59:22.826Z,99561.36
2017-09-08T10:01:50.226Z,99544.70
2017-09-08T10:04:17.615Z,99541.03
2017-09-08T10:06:45.003Z,99543.41
2017-09-08T10:09:12.390Z,99533.12
2017-09-08T10:11:39.778Z,99547.77
2017-09-08T10:14:07.166Z,99537.39
2017-09-08T10:16:34.551Z,99525.23
2017-09-08T10:19:01.940Z,99527.33
2017-09-08T10:21:29.335Z,99535.87
2017-09-08T10:23:56.718Z,99528.73
2017-09-08T10:26:24.146Z,99537.38
2017-09-08T10:28:51.597Z,99533.94
2017-09-08T10:31:18.999Z,99531.80
2017-09-08T10:33:46.379Z,99533.70
2017-09-08T10:36:13.766Z,99532.91
2017-09-08T10:38:41.159Z,99529.14
2017-09-08T10:41:08.563Z,99526.28
2017-09-08T10:43:35.948Z,99529.38
2017-09-08T10:46:03.335Z,99536.56
2017-09-08T10:48:30.735Z,99534.55
2017-09-08T10:50:58.199Z,99534.82
2017-09-08T10:53:25.584Z,99531.42
2017-09-08T10:55:52.978Z,99543.28
2017-09-08T10:58:20.385Z,99543.32
2017-09-08T11:00:47.772Z,99543.55
2017-09-08T11:03:15.193Z,99538.60
2017-09-08T11:05:42.563Z,99539.86
2017-09-08T11:08:09.967Z,99541.84
2017-09-08T11:10:37.438Z,99532.66
2017-09-08T11:13:04.930Z,99536.45
2017-09-08T11:15:32.326Z,99541.75
2017-09-08T11:17:59.832Z,99535.36
2017-09-08T11:20:27.267Z,99537.12
2017-09-08T11:22:54.665Z,99534.36
2017-09-08T11:25:22.084Z,99527.22
2017-09-08T11:27:49.546Z,99528.47
2017-09-08T11:30:16.918Z,99529.20
2017-09-08T11:32:49.935Z,99526.89
2017-09-08T11:35:22.919Z,99523.88
2017-09-08T11:40:24.199Z,99525.89
2017-09-08T11:42:51.582Z,99527.13
2017-09-08T11:45:18.982Z,99528.43
2017-09-08T11:47:46.366Z,99533.94
2017-09-08T11:50:13.872Z,99533.65
2017-09-08T11:52:41.250Z,99541.51
2017-09-08T11:55:08.634Z,99536.32
2017-09-08T11:57:36.019Z,99537.08
2017-09-08T12:00:03.816Z,99537.40
2017-09-08T12:02:31.205Z,99532.58
2017-09-08T12:04:58.594Z,99540.79
2017-09-08T12:07:26.050Z,99542.83
2017-09-08T12:09:53.450Z,99542.00
2017-09-08T12:12:20.877Z,99547.87
2017-09-08T12:14:48.251Z,99546.30
2017-09-08T12:17:15.642Z,99544.23
2017-09-08T12:19:43.029Z,99537.63
2017-09-08T12:22:10.401Z,99539.55
2017-09-08T12:24:37.787Z,99541.77
2017-09-08T12:27:05.174Z,99537.92
2017-09-08T12:29:32.560Z,99536.22
2017-09-08T12:32:00.002Z,99534.52
2017-09-08T12:34:27.402Z,99532.23
2017-09-08T12:36:54.783Z,99533.44
2017-09-08T12:39:22.177Z,99531.09
2017-09-08T12:41:49.622Z,99538.55
2017-09-08T12:44:17.006Z,99532.67
2017-09-08T12:46:44.399Z,99528.36
2017-09-08T12:49:11.899Z,99524.55
2017-09-08T12:51:39.279Z,99524.84
2017-09-08T12:54:06.654Z,99522.02
2017-09-08T12:56:34.049Z,99518.84
2017-09-08T12:59:01.519Z,99528.08
2017-09-08T13:01:28.923Z,99518.55
2017-09-08T13:03:56.302Z,99520.86
2017-09-08T13:06:23.690Z,99520.47
2017-09-08T13:08:51.067Z,99522.69
2017-09-08T13:11:18.466Z,99520.70
2017-09-08T13:13:45.864Z,99516.30
2017-09-08T13:16:13.259Z,99518.34
2017-09-08T13:18:40.644Z,99515.27
2017-09-08T13:21:08.026Z,99510.05
2017-09-08T13:23:35.416Z,99516.73
2017-09-08T13:26:02.799Z,99516.80
2017-09-08T13:28:30.219Z,99509.04
2017-09-08T13:30:57.619Z,99508.33
2017-09-08T13:33:25.010Z,99507.55
2017-09-08T13:35:52.404Z,99511.08
2017-09-08T13:38:19.847Z,99507.88
2017-09-08T13:40:47.239Z,99508.72
2017-09-08T13:43:14.632Z,99509.16
2017-09-08T13:45:42.014Z,99513.87
2017-09-08T13:48:09.406Z,99502.77
2017-09-08T13:50:36.795Z,99501.66
2017-09-08T13:53:04.187Z,99496.89
2017-09-08T13:55:31.571Z,99504.28
2017-09-08T13:57:58.964Z,99512.08
2017-09-08T14:00:26.353Z,99502.34
2017-09-08T14:02:53.739Z,99503.41
2017-09-08T14:05:21.123Z,99498.08
2017-09-08T14:07:48.514Z,99490.05
2017-09-08T14:10:15.922Z,99496.81
2017-09-08T14:12:43.311Z,99498.63
2017-09-08T14:15:10.698Z,99492.72
2017-09-08T14:17:38.090Z,99489.45
2017-09-08T14:20:05.483Z,99485.77
2017-09-08T14:22:32.871Z,99478.57
2017-09-08T14:25:00.291Z,99485.94
2017-09-08T14:27:27.683Z,99479.70
2017-09-08T14:29:55.067Z,99480.44
2017-09-08T14:32:22.462Z,99472.70
2017-09-08T14:34:49.846Z,99466.78
2017-09-08T14:37:17.251Z,99469.27
2017-09-08T14:39:44.626Z,99469.23
2017-09-08T14:42:12.037Z,99468.48
2017-09-08T14:44:39.494Z,99461.73
2017-09-08T14:47:06.950Z,99461.48
2017-09-08T14:49:34.343Z,99468.03
2017-09-08T14:52:01.778Z,99469.24
2017-09-08T14:54:29.168Z,99465.25
2017-09-08T14:56:56.550Z,99462.52
2017-09-08T14:59:23.948Z,99454.28
2017-09-08T15:01:51.391Z,99460.38
2017-09-08T15:04:18.787Z,99458.48
2017-09-08T15:06:46.168Z,99454.05
2017-09-08T15:09:13.576Z,99455.32
2017-09-08T15:11:40.962Z,99459.02
2017-09-08T15:14:08.352Z,99455.66
2017-09-08T15:16:35.740Z,99445.98
2017-09-08T15:19:03.122Z,99443.41
2017-09-08T15:21:30.535Z,99446.64
2017-09-08T15:23:57.923Z,99445.22
2017-09-08T15:26:25.338Z,99444.55
2017-09-08T15:28:52.719Z,99445.85
2017-09-08T15:31:20.107Z,99444.50
2017-09-08T15:33:47.502Z,99436.68
2017-09-08T15:36:14.895Z,99441.62
2017-09-08T15:38:42.284Z,99436.91
2017-09-08T15:41:09.667Z,99434.95
2017-09-08T15:43:37.050Z,99434.66
2017-09-08T15:46:04.430Z,99442.23
2017-09-08T15:48:31.811Z,99430.17
2017-09-08T15:50:59.194Z,99432.22
2017-09-08T15:53:26.570Z,99432.98
2017-09-08T15:55:53.954Z,99426.73
2017-09-08T15:58:21.341Z,99422.72
2017-09-08T16:00:48.812Z,99421.82
2017-09-08T16:03:16.195Z,99418.12
2017-09-08T16:05:43.594Z,99425.73
2017-09-08T16:08:10.982Z,99425.02
2017-09-08T16:10:38.435Z,99421.05
2017-09-08T16:13:05.845Z,99414.95
2017-09-08T16:15:33.220Z,99413.98
2017-09-08T16:18:00.611Z,99415.58
2017-09-08T16:20:27.995Z,99411.31
2017-09-08T16:22:55.392Z,99411.54
2017-09-08T16:25:22.874Z,99405.27
2017-09-08T16:27:50.266Z,99400.30
2017-09-08T16:30:17.649Z,99397.20
2017-09-08T16:32:45.101Z,99399.34
2017-09-08T16:35:12.482Z,99392.57
2017-09-08T16:37:39.878Z,99397.61
2017-09-08T16:40:07.311Z,99390.26
2017-09-08T16:42:34.695Z,99396.16
2017-09-08T16:45:02.092Z,99387.19
2017-09-08T16:47:29.458Z,99386.63
2017-09-08T16:49:56.851Z,99389.67
2017-09-08T16:52:24.235Z,99386.01
2017-09-08T16:54:51.622Z,99389.12
2017-09-08T16:57:19.009Z,99385.89
2017-09-08T16:59:46.399Z,99390.70
2017-09-08T17:02:13.778Z,99384.86
2017-09-08T17:04:41.179Z,99379.88
2017-09-08T17:07:08.566Z,99387.20
2017-09-08T17:09:35.954Z,99374.79
2017-09-08T17:12:03.340Z,99373.02
2017-09-08T17:14:30.726Z,99370.26
2017-09-08T17:16:58.107Z,99365.44
2017-09-08T17:19:25.498Z,99356.77
2017-09-08T17:21:52.875Z,99362.58
2017-09-08T17:24:20.275Z,99363.61
2017-09-08T17:26:47.655Z,99362.36
2017-09-08T17:29:15.038Z,99353.77
2017-09-08T17:31:42.419Z,99355.69
2017-09-08T17:34:09.851Z,99354.04
2017-09-08T17:36:37.198Z,99359.84
2017-09-08T17:39:04.599Z,99358.43
2017-09-08T17:41:31.989Z,99354.41
2017-09-08T17:43:59.465Z,99348.38
2017-09-08T17:46:26.846Z,99350.03
2017-09-08T17:48:54.272Z,99352.70
2017-09-08T17:51:21.643Z,99351.05
2017-09-08T17:53:49.066Z,99339.80
2017-09-08T17:56:16.522Z,99341.05
2017-09-08T17:58:43.979Z,99338.38
2017-09-08T18:01:11.368Z,99335.98
2017-09-08T18:03:38.756Z,99335.48
2017-09-08T18:06:06.242Z,99330.23
2017-09-08T18:08:33.627Z,99331.73
2017-09-08T18:11:01.014Z,99339.39
2017-09-08T18:13:28.418Z,99332.95
2017-09-08T18:15:55.858Z,99319.20
2017-09-08T18:18:23.243Z,99324.53
2017-09-08T18:20:50.622Z,99337.16
2017-09-08T18:23:18.014Z,99327.34
2017-09-08T18:25:46.552Z,99325.78
2017-09-08T18:28:13.941Z,99324.00
2017-09-08T18:30:41.319Z,99318.11
2017-09-08T18:33:08.713Z,99318.26
2017-09-08T18:35:36.091Z,99311.35
2017-09-08T18:38:03.490Z,99307.45
2017-09-08T18:40:30.871Z,99304.52
2017-09-08T18:42:58.258Z,99311.95
2017-09-08T18:45:25.639Z,99310.64
2017-09-08T18:47:53.087Z,99310.47
2017-09-08T18:50:20.470Z,99314.80
2017-09-08T18:52:47.867Z,99318.67
2017-09-08T18:55:15.246Z,99317.72
2017-09-08T18:57:42.630Z,99315.25
2017-09-08T19:00:10.020Z,99323.39
2017-09-08T19:02:37.410Z,99322.17
2017-09-08T19:05:04.806Z,99316.03
2017-09-08T19:07:32.202Z,99304.11
2017-09-08T19:09:59.578Z,99310.52
2017-09-08T19:12:27.213Z,99316.00
2017-09-08T19:14:54.766Z,99314.66
2017-09-08T19:17:22.135Z,99309.00
2017-09-08T19:19:49.514Z,99301.84
2017-09-08T19:22:16.910Z,99299.09
2017-09-08T19:24:44.298Z,99305.20
2017-09-08T19:27:11.673Z,99295.52
2017-09-08T19:29:39.063Z,99286.21
2017-09-08T19:32:06.534Z,99287.63
2017-09-08T19:34:33.989Z,99287.71
2017-09-08T19:37:01.371Z,99277.23
2017-09-08T19:39:28.755Z,99279.11
2017-09-08T19:41:56.139Z,99280.59
2017-09-08T19:44:23.535Z,99270.97
2017-09-08T19:46:50.921Z,99262.72
2017-09-08T19:49:18.402Z,99249.06
2017-09-08T19:51:45.784Z,99247.73
2017-09-08T19:54:13.168Z,99250.05
2017-09-08T19:56:40.550Z,99252.63
2017-09-08T19:59:07.948Z,99243.99
2017-09-08T20:01:35.336Z,99237.67
2017-09-08T20:04:02.734Z,99233.08
2017-09-08T20:06:30.236Z,99235.42
2017-09-08T20:08:57.615Z,99236.42
2017-09-08T20:11:25.000Z,99239.17
2017-09-08T20:13:52.386Z,99237.34
2017-09-08T20:16:19.765Z,99240.98
2017-09-08T20:18:47.150Z,99235.48
2017-09-08T20:21:14.594Z,99238.89
2017-09-08T20:23:41.963Z,99239.39
2017-09-08T20:26:09.354Z,99233.07
2017-09-08T20:28:36.738Z,99228.64
2017-09-08T20:31:04.122Z,99209.02
2017-09-08T20:33:31.506Z,99216.44
2017-09-08T20:35:58.894Z,99216.98
2017-09-08T20:41:18.844Z,99213.19
2017-09-08T20:46:36.489Z,99195.03
2017-09-08T20:49:03.886Z,99200.61
2017-09-08T20:51:31.282Z,99201.87
2017-09-08T20:53:58.673Z,99209.25
2017-09-08T20:56:26.055Z,99204.59
2017-09-08T20:58:53.438Z,99213.20
2017-09-08T21:01:20.835Z,99206.03
2017-09-08T21:03:48.214Z,99207.28
2017-09-08T21:06:15.603Z,99207.36
2017-09-08T21:08:43.039Z,99212.94
2017-09-08T21:11:10.428Z,99203.41
2017-09-08T21:13:37.811Z,99210.60
2017-09-08T21:16:05.198Z,99201.21
2017-09-08T21:18:32.662Z,99203.38
2017-09-08T21:21:00.043Z,99199.10
2017-09-08T21:23:27.425Z,99198.28
2017-09-08T21:25:54.814Z,99191.27
2017-09-08T21:28:22.236Z,99191.70
2017-09-08T21:30:49.615Z,99191.27
2017-09-08T21:33:17.011Z,99188.19
2017-09-08T21:35:44.448Z,99197.02
2017-09-08T21:38:11.903Z,99189.02
2017-09-08T21:40:39.362Z,99184.47
2017-09-08T21:43:06.751Z,99178.20
2017-09-08T21:45:34.139Z,99162.16
2017-09-08T21:48:01.532Z,99157.23
2017-09-08T21:50:28.982Z,99160.08
2017-09-08T21:52:56.434Z,99164.55
2017-09-08T21:55:23.819Z,99164.13
2017-09-08T21:57:51.248Z,99162.98
2017-09-08T22:00:18.711Z,99163.05
2017-09-08T22:02:46.088Z,99168.83
2017-09-08T22:05:13.483Z,99164.15
2017-09-08T22:07:40.862Z,99160.85
2017-09-08T22:10:08.250Z,99159.03
2017-09-08T22:12:35.639Z,99152.75
2017-09-08T22:15:03.024Z,99151.70
2017-09-08T22:17:30.408Z,99155.31
2017-09-08T22:19:57.803Z,99149.41
2017-09-08T22:22:25.182Z,99155.33
2017-09-08T22:24:52.590Z,99145.86
2017-09-08T22:27:19.975Z,99146.77
2017-09-08T22:29:47.466Z,99142.13
2017-09-08T22:32:14.858Z,99143.75
2017-09-08T22:34:42.250Z,99131.47
2017-09-08T22:37:09.644Z,99130.38
2017-09-08T22:39:37.031Z,99135.52
2017-09-08T22:42:04.451Z,99126.80
2017-09-08T22:44:31.838Z,99120.80
2017-09-08T22:46:59.223Z,99130.18
2017-09-08T22:49:26.615Z,99128.69
2017-09-08T22:51:53.996Z,99116.06
2017-09-08T22:54:31.370Z,99120.23
2017-09-08T22:56:58.746Z,99123.38
2017-09-08T22:59:26.131Z,99107.24
2017-09-08T23:01:53.543Z,99116.91
2017-09-08T23:04:20.922Z,99110.92
2017-09-08T23:06:48.302Z,99112.94
2017-09-08T23:09:15.688Z,99119.49
2017-09-08T23:11:43.079Z,99114.78
2017-09-08T23:14:10.462Z,99119.51
2017-09-08T23:16:37.860Z,99110.51
2017-09-08T23:19:05.243Z,99112.16
2017-09-08T23:21:32.663Z,99109.11
2017-09-08T23:24:00.044Z,99107.75
2017-09-08T23:26:27.434Z,99107.64
2017-09-08T23:28:54.830Z,99114.92
2017-09-08T23:31:22.218Z,99109.50
2017-09-08T23:33:49.594Z,99108.72
2017-09-08T23:36:16.988Z,99106.88
2017-09-08T23:38:44.362Z,99107.13
2017-09-08T23:41:11.751Z,99108.03
2017-09-08T23:43:39.130Z,99099.05
2017-09-08T23:46:06.519Z,99105.97
2017-09-08T23:48:33.898Z,99108.44
2017-09-08T23:51:01.279Z,99100.21
2017-09-08T23:53:28.665Z,99086.73
2017-09-08T23:55:56.052Z,99094.13
2017-09-08T23:58:23.444Z,99091.63
